createdAt,value
2018-08-03T00:01:49.577Z,8.05
2018-08-03T00:04:18.919Z,8.50
2018-08-03T00:06:48.596Z,8.65
2018-08-03T00:09:17.684Z,8.65
2018-08-03T00:11:46.876Z,8.28
2018-08-03T00:14:16.120Z,8.40
2018-08-03T00:16:45.322Z,8.10
2018-08-03T00:19:14.964Z,8.05
2018-08-03T00:21:44.255Z,8.18
2018-08-03T00:24:13.692Z,7.47
2018-08-03T00:26:42.831Z,8.68
2018-08-03T00:29:11.924Z,8.38
2018-08-03T00:31:41.100Z,8.98
2018-08-03T00:34:10.196Z,8.80
2018-08-03T00:36:39.372Z,8.55
2018-08-03T00:39:10.383Z,7.72
2018-08-03T00:41:39.534Z,8.38
2018-08-03T00:44:09.228Z,8.03
2018-08-03T00:46:38.468Z,7.87
2018-08-03T00:49:07.616Z,7.50
2018-08-03T00:51:36.836Z,8.30
2018-08-03T00:54:06.060Z,7.45
2018-08-03T00:56:35.339Z,7.72
2018-08-03T00:59:04.560Z,7.87
2018-08-03T01:01:33.716Z,8.45
2018-08-03T01:04:02.908Z,8.20
2018-08-03T01:06:32.565Z,8.00
2018-08-03T01:09:01.680Z,8.18
2018-08-03T01:11:30.857Z,8.38
2018-08-03T01:14:00.100Z,8.00
2018-08-03T01:16:29.283Z,8.00
2018-08-03T01:18:58.152Z,8.35
2018-08-03T01:21:27.411Z,8.13
2018-08-03T01:23:56.640Z,8.38
2018-08-03T01:26:25.763Z,8.15
2018-08-03T01:28:54.938Z,8.35
2018-08-03T01:31:23.887Z,7.97
2018-08-03T01:33:53.200Z,8.33
2018-08-03T01:36:22.422Z,8.10
2018-08-03T01:38:52.188Z,7.83
2018-08-03T01:41:21.334Z,8.75
2018-08-03T01:43:51.104Z,9.25
2018-08-03T01:46:20.268Z,8.75
2018-08-03T01:48:50.284Z,8.10
2018-08-03T01:51:19.719Z,8.58
2018-08-03T01:53:48.916Z,8.65
2018-08-03T01:56:18.008Z,8.25
2018-08-03T01:58:47.520Z,8.70
2018-08-03T02:01:16.866Z,8.25
2018-08-03T02:03:45.928Z,8.03
2018-08-03T02:06:15.140Z,8.20
2018-08-03T02:08:44.360Z,8.73
2018-08-03T02:11:13.308Z,8.40
2018-08-03T02:13:42.940Z,8.48
2018-08-03T02:16:12.109Z,8.73
2018-08-03T02:18:41.196Z,8.60
2018-08-03T02:21:10.432Z,8.28
2018-08-03T02:23:39.599Z,7.72
2018-08-03T02:26:08.852Z,7.50
2018-08-03T02:28:37.920Z,7.10
2018-08-03T02:31:07.088Z,8.00
2018-08-03T02:33:36.274Z,7.90
2018-08-03T02:36:05.591Z,7.53
2018-08-03T02:38:34.845Z,8.30
2018-08-03T02:41:03.792Z,8.50
2018-08-03T02:43:33.212Z,8.00
2018-08-03T02:46:02.380Z,8.63
2018-08-03T02:48:31.584Z,8.30
2018-08-03T02:51:00.795Z,7.90
2018-08-03T02:53:29.939Z,8.58
2018-08-03T02:55:59.053Z,8.35
2018-08-03T02:58:28.327Z,8.08
2018-08-03T03:00:57.480Z,8.63
2018-08-03T03:03:26.709Z,8.75
2018-08-03T03:05:56.108Z,8.65
2018-08-03T03:08:25.255Z,8.60
2018-08-03T03:10:54.783Z,8.00
2018-08-03T03:13:23.967Z,8.05
2018-08-03T03:15:53.204Z,8.40
2018-08-03T03:18:22.377Z,7.95
2018-08-03T03:20:51.776Z,8.05
2018-08-03T03:23:20.951Z,8.58
2018-08-03T03:25:50.048Z,8.05
2018-08-03T03:28:19.588Z,8.40
2018-08-03T03:30:48.756Z,8.53
2018-08-03T03:33:17.848Z,8.63
2018-08-03T03:35:47.993Z,8.50
2018-08-03T03:38:17.189Z,8.33
2018-08-03T03:40:46.400Z,8.33
2018-08-03T03:43:15.600Z,8.00
2018-08-03T03:45:44.776Z,7.45
2018-08-03T03:48:13.984Z,7.97
2018-08-03T03:50:43.514Z,8.45
2018-08-03T03:53:12.884Z,7.80
2018-08-03T03:55:41.991Z,8.25
2018-08-03T03:58:11.400Z,8.53
2018-08-03T04:00:40.612Z,9.03
2018-08-03T04:03:09.668Z,8.73
2018-08-03T04:05:38.876Z,8.33
2018-08-03T04:08:08.067Z,7.90
2018-08-03T04:10:37.289Z,7.75
2018-08-03T04:13:07.225Z,8.80
2018-08-03T04:15:36.192Z,8.18
2018-08-03T04:18:10.512Z,8.53
2018-08-03T04:20:39.592Z,8.90
2018-08-03T04:23:08.792Z,8.83
2018-08-03T04:25:38.235Z,8.70
2018-08-03T04:28:07.664Z,7.97
2018-08-03T04:30:36.884Z,8.08
2018-08-03T04:33:06.416Z,7.60
2018-08-03T04:35:35.618Z,7.83
2018-08-03T04:38:04.824Z,7.37
2018-08-03T04:40:34.120Z,8.75
2018-08-03T04:43:03.107Z,7.97
2018-08-03T04:45:32.276Z,8.15
2018-08-03T04:48:01.492Z,8.03
2018-08-03T04:50:30.588Z,7.92
2018-08-03T04:53:00.058Z,8.33
2018-08-03T04:55:30.213Z,7.33
2018-08-03T04:57:59.423Z,7.83
2018-08-03T05:00:29.448Z,7.45
2018-08-03T05:02:58.331Z,7.85
2018-08-03T05:05:27.445Z,7.00
2018-08-03T05:07:56.611Z,8.05
2018-08-03T05:10:25.712Z,7.67
2018-08-03T05:12:54.984Z,7.85
2018-08-03T05:15:25.148Z,9.50
2018-08-03T05:17:54.243Z,7.78
2018-08-03T05:20:23.444Z,7.35
2018-08-03T05:22:53.260Z,7.75
2018-08-03T05:25:22.768Z,7.72
2018-08-03T05:27:51.872Z,7.55
2018-08-03T05:30:21.073Z,8.08
2018-08-03T05:32:50.424Z,8.15
2018-08-03T05:35:19.692Z,7.35
2018-08-03T05:37:49.268Z,14.03
2018-08-03T05:40:18.356Z,8.50
2018-08-03T05:42:47.774Z,8.08
2018-08-03T05:45:17.231Z,8.60
2018-08-03T05:47:46.460Z,8.15
2018-08-03T05:50:15.817Z,7.62
2018-08-03T05:52:44.872Z,8.38
2018-08-03T05:55:14.139Z,8.75
2018-08-03T05:57:44.251Z,8.13
2018-08-03T06:00:13.544Z,8.43
2018-08-03T06:02:43.396Z,8.20
2018-08-03T06:05:12.573Z,8.10
2018-08-03T06:07:41.808Z,8.35
2018-08-03T06:10:11.092Z,8.00
2018-08-03T06:12:40.288Z,8.13
2018-08-03T06:15:10.439Z,8.05
2018-08-03T06:17:40.315Z,7.72
2018-08-03T06:20:12.296Z,7.80
2018-08-03T06:22:42.180Z,9.05
2018-08-03T06:25:11.978Z,8.43
2018-08-03T06:27:41.218Z,8.53
2018-08-03T06:30:12.021Z,8.53
2018-08-03T06:32:42.132Z,8.60
2018-08-03T06:35:11.272Z,8.53
2018-08-03T06:37:40.872Z,8.10
2018-08-03T06:40:10.960Z,8.40
2018-08-03T06:42:40.147Z,7.90
2018-08-03T06:45:09.376Z,8.23
2018-08-03T06:47:38.556Z,7.70
2018-08-03T06:50:07.696Z,7.83
2018-08-03T06:52:38.482Z,7.25
2018-08-03T06:55:07.573Z,7.33
2018-08-03T06:57:36.847Z,6.53
2018-08-03T07:00:07.600Z,7.03
2018-08-03T07:02:36.807Z,7.87
2018-08-03T07:05:06.020Z,7.55
2018-08-03T07:07:35.936Z,7.75
2018-08-03T07:10:05.328Z,7.65
2018-08-03T07:12:34.540Z,7.95
2018-08-03T07:15:04.053Z,7.95
2018-08-03T07:17:33.232Z,7.30
2018-08-03T07:20:02.556Z,7.90
2018-08-03T07:22:31.624Z,8.10
2018-08-03T07:25:00.841Z,7.40
2018-08-03T07:27:29.915Z,7.42
2018-08-03T07:29:59.628Z,7.08
2018-08-03T07:32:28.857Z,6.90
2018-08-03T07:34:58.632Z,6.70
2018-08-03T07:37:28.184Z,6.40
2018-08-03T07:39:57.291Z,6.83
2018-08-03T07:42:26.436Z,7.25
2018-08-03T07:44:56.727Z,6.83
2018-08-03T07:47:25.852Z,6.65
2018-08-03T07:49:56.128Z,7.03
2018-08-03T07:52:26.122Z,7.30
2018-08-03T07:54:55.180Z,6.35
2018-08-03T07:57:25.310Z,6.67
2018-08-03T07:59:54.500Z,7.08
2018-08-03T08:02:24.468Z,6.85
2018-08-03T08:04:54.309Z,6.37
2018-08-03T08:07:24.396Z,6.80
2018-08-03T08:09:54.368Z,6.92
2018-08-03T08:12:24.205Z,7.08
2018-08-03T08:14:53.406Z,7.00
2018-08-03T08:17:22.579Z,7.03
2018-08-03T08:19:52.109Z,7.70
2018-08-03T08:22:21.008Z,7.15
2018-08-03T08:24:50.083Z,6.62
2018-08-03T08:27:19.475Z,6.53
2018-08-03T08:29:49.664Z,6.20
2018-08-03T08:32:18.844Z,6.62
2018-08-03T08:34:49.137Z,7.20
2018-08-03T08:37:19.225Z,7.45
2018-08-03T08:39:49.784Z,6.75
2018-08-03T08:42:18.784Z,6.87
2018-08-03T08:44:48.058Z,7.15
2018-08-03T08:47:17.480Z,7.00
2018-08-03T08:49:46.654Z,7.20
2018-08-03T08:52:16.797Z,6.95
2018-08-03T08:54:46.830Z,6.70
2018-08-03T08:57:16.735Z,7.50
2018-08-03T08:59:46.116Z,6.12
2018-08-03T09:02:15.281Z,6.90
2018-08-03T09:04:45.104Z,6.40
2018-08-03T09:07:14.300Z,6.40
2018-08-03T09:09:43.505Z,6.53
2018-08-03T09:12:13.331Z,6.62
2018-08-03T09:14:42.529Z,6.33
2018-08-03T09:17:11.696Z,6.97
2018-08-03T09:19:41.969Z,6.55
2018-08-03T09:22:11.174Z,7.10
2018-08-03T09:24:40.274Z,6.40
2018-08-03T09:27:09.216Z,6.62
2018-08-03T09:29:38.441Z,6.37
2018-08-03T09:32:07.764Z,6.60
2018-08-03T09:34:38.108Z,7.70
2018-08-03T09:37:07.556Z,6.62
2018-08-03T09:39:37.444Z,6.72
2018-08-03T09:42:07.105Z,6.35
2018-08-03T09:44:37.517Z,6.53
2018-08-03T09:47:07.633Z,6.62
2018-08-03T09:49:38.330Z,6.22
2018-08-03T09:52:07.651Z,6.25
2018-08-03T09:54:37.217Z,5.90
2018-08-03T09:57:07.654Z,6.45
2018-08-03T09:59:37.261Z,5.97
2018-08-03T10:02:07.295Z,5.42
2018-08-03T10:04:37.080Z,5.60
2018-08-03T10:07:06.220Z,5.50
2018-08-03T10:09:37.049Z,5.65
2018-08-03T10:12:07.310Z,5.90
2018-08-03T10:14:37.063Z,5.80
2018-08-03T10:17:06.292Z,5.55
2018-08-03T10:19:36.336Z,5.12
2018-08-03T10:22:05.636Z,4.70
2018-08-03T10:24:35.880Z,4.97
2018-08-03T10:27:05.129Z,4.65
2018-08-03T10:29:34.944Z,5.45
2018-08-03T10:32:04.146Z,5.87
2018-08-03T10:34:33.635Z,5.70
2018-08-03T10:37:02.946Z,5.45
2018-08-03T10:39:32.152Z,5.67
2018-08-03T10:42:01.449Z,5.42
2018-08-03T10:44:30.620Z,5.25
2018-08-03T10:46:59.796Z,5.37
2018-08-03T10:49:29.063Z,5.25
2018-08-03T10:51:57.899Z,5.47
2018-08-03T10:54:27.004Z,5.47
2018-08-03T10:56:56.324Z,4.78
2018-08-03T10:59:25.750Z,4.97
2018-08-03T11:01:55.112Z,5.12
2018-08-03T11:04:25.072Z,4.75
2018-08-03T11:06:54.420Z,5.35
2018-08-03T11:09:23.576Z,5.28
2018-08-03T11:11:53.052Z,5.22
2018-08-03T11:14:22.144Z,5.08
2018-08-03T11:16:51.340Z,5.15
2018-08-03T11:19:21.499Z,5.20
2018-08-03T11:21:50.451Z,5.12
2018-08-03T11:24:19.723Z,5.10
2018-08-03T11:26:49.185Z,5.40
2018-08-03T11:29:18.392Z,4.97
2018-08-03T11:31:47.378Z,4.90
2018-08-03T11:34:16.886Z,5.00
2018-08-03T11:36:46.042Z,4.90
2018-08-03T11:39:15.136Z,5.00
2018-08-03T11:41:44.695Z,4.78
2018-08-03T11:44:14.128Z,5.15
2018-08-03T11:46:43.253Z,5.17
2018-08-03T11:49:12.493Z,4.83
2018-08-03T11:51:41.664Z,5.00
2018-08-03T11:54:10.974Z,5.03
2018-08-03T11:56:40.686Z,4.87
2018-08-03T11:59:09.857Z,4.95
2018-08-03T12:01:39.813Z,4.78
2018-08-03T12:04:08.909Z,4.67
2018-08-03T12:06:38.235Z,4.50
2018-08-03T12:09:09.192Z,4.60
2018-08-03T12:11:38.319Z,4.47
2018-08-03T12:14:07.425Z,4.45
2018-08-03T12:16:37.024Z,4.83
2018-08-03T12:19:06.280Z,4.65
2018-08-03T12:21:36.528Z,4.83
2018-08-03T12:24:07.083Z,4.40
2018-08-03T12:26:36.302Z,5.12
2018-08-03T12:29:05.476Z,4.80
2018-08-03T12:31:35.650Z,4.50
2018-08-03T12:34:04.748Z,4.42
2018-08-03T12:36:34.636Z,4.60
2018-08-03T12:39:04.516Z,4.50
2018-08-03T12:41:34.632Z,4.47
2018-08-03T12:44:04.434Z,4.15
2018-08-03T12:46:34.392Z,4.58
2018-08-03T12:49:03.896Z,3.98
2018-08-03T12:51:34.857Z,4.47
2018-08-03T12:54:04.072Z,4.33
2018-08-03T12:56:33.452Z,4.03
2018-08-03T12:59:02.820Z,4.03
2018-08-03T13:01:32.005Z,4.10
2018-08-03T13:04:01.544Z,4.22
2018-08-03T13:06:30.659Z,4.47
2018-08-03T13:09:00.181Z,4.28
2018-08-03T13:11:29.380Z,4.22
2018-08-03T13:13:58.600Z,3.77
2018-08-03T13:16:27.712Z,4.12
2018-08-03T13:18:56.768Z,4.30
2018-08-03T13:21:37.776Z,4.62
2018-08-03T13:24:07.145Z,4.30
2018-08-03T13:26:36.472Z,4.45
2018-08-03T13:29:05.847Z,3.98
2018-08-03T13:31:35.798Z,4.30
2018-08-03T13:34:05.033Z,4.40
2018-08-03T13:36:35.388Z,4.03
2018-08-03T13:39:08.119Z,4.42
2018-08-03T13:41:37.981Z,4.30
2018-08-03T13:44:07.180Z,4.20
2018-08-03T13:46:36.515Z,4.05
2018-08-03T13:49:05.763Z,4.28
2018-08-03T13:51:35.626Z,3.90
2018-08-03T13:54:04.933Z,4.30
2018-08-03T13:56:35.245Z,4.30
2018-08-03T13:59:04.661Z,4.15
2018-08-03T14:01:44.817Z,4.15
2018-08-03T14:04:14.227Z,4.10
2018-08-03T14:06:43.416Z,4.37
2018-08-03T14:09:13.012Z,3.90
2018-08-03T14:11:42.181Z,4.10
2018-08-03T14:14:11.408Z,4.33
2018-08-03T14:16:41.020Z,3.85
2018-08-03T14:19:10.129Z,3.80
2018-08-03T14:21:39.517Z,4.45
2018-08-03T14:24:08.683Z,3.98
2018-08-03T14:26:37.921Z,4.42
2018-08-03T14:29:08.149Z,4.28
2018-08-03T14:31:37.509Z,4.17
2018-08-03T14:34:06.765Z,4.03
2018-08-03T14:36:37.484Z,4.60
2018-08-03T14:39:09.824Z,4.40
2018-08-03T14:41:39.517Z,4.53
2018-08-03T14:44:09.444Z,4.60
2018-08-03T14:46:40.009Z,4.30
2018-08-03T14:49:09.279Z,4.70
2018-08-03T14:51:38.904Z,4.70
2018-08-03T14:54:08.404Z,4.55
2018-08-03T14:56:38.049Z,4.47
2018-08-03T14:59:08.252Z,4.45
2018-08-03T15:01:37.856Z,4.97
2018-08-03T15:04:07.068Z,4.67
2018-08-03T15:06:37.196Z,4.55
2018-08-03T15:09:09.652Z,4.37
2018-08-03T15:11:39.127Z,4.50
2018-08-03T15:14:08.349Z,4.37
2018-08-03T15:16:38.752Z,4.75
2018-08-03T15:19:08.388Z,4.75
2018-08-03T15:21:37.496Z,4.35
2018-08-03T15:24:06.786Z,4.58
2018-08-03T15:26:36.613Z,4.70
2018-08-03T15:29:05.801Z,4.35
2018-08-03T15:31:37.424Z,4.67
2018-08-03T15:34:07.131Z,4.53
2018-08-03T15:36:37.446Z,4.37
2018-08-03T15:39:10.020Z,4.20
2018-08-03T15:41:39.720Z,4.22
2018-08-03T15:44:09.480Z,4.42
2018-08-03T15:46:38.776Z,4.70
2018-08-03T15:49:07.567Z,4.75
2018-08-03T15:51:37.230Z,4.87
2018-08-03T15:54:06.588Z,4.53
2018-08-03T15:56:36.596Z,4.90
2018-08-03T15:59:05.581Z,4.12
2018-08-03T16:01:36.080Z,4.25
2018-08-03T16:04:05.270Z,4.40
2018-08-03T16:06:35.599Z,4.40
2018-08-03T16:09:07.920Z,4.67
2018-08-03T16:11:39.160Z,4.45
2018-08-03T16:14:08.610Z,4.17
2018-08-03T16:16:38.736Z,4.45
2018-08-03T16:19:07.977Z,4.10
2018-08-03T16:21:37.770Z,4.22
2018-08-03T16:24:06.751Z,4.90
2018-08-03T16:26:36.664Z,4.20
2018-08-03T16:29:05.849Z,4.30
2018-08-03T16:31:37.304Z,4.45
2018-08-03T16:34:06.616Z,4.40
2018-08-03T16:36:37.144Z,4.50
2018-08-03T16:39:09.821Z,4.35
2018-08-03T16:41:39.360Z,4.45
2018-08-03T16:44:08.323Z,4.60
2018-08-03T16:46:38.721Z,4.58
2018-08-03T16:49:07.868Z,4.92
2018-08-03T16:51:37.237Z,4.80
2018-08-03T16:54:06.468Z,4.42
2018-08-03T16:56:36.950Z,4.50
2018-08-03T16:59:06.196Z,4.60
2018-08-03T17:01:36.980Z,4.55
2018-08-03T17:04:06.149Z,4.12
2018-08-03T17:06:36.093Z,4.17
2018-08-03T17:09:09.848Z,4.33
2018-08-03T17:11:39.035Z,4.17
2018-08-03T17:14:08.187Z,4.33
2018-08-03T17:16:37.719Z,4.58
2018-08-03T17:19:07.676Z,4.42
2018-08-03T17:21:38.705Z,4.40
2018-08-03T17:24:07.889Z,4.40
2018-08-03T17:26:37.705Z,4.40
2018-08-03T17:29:07.220Z,4.42
2018-08-03T17:31:37.544Z,5.00
2018-08-03T17:34:06.741Z,4.72
2018-08-03T17:36:36.873Z,4.30
2018-08-03T17:39:09.307Z,4.67
2018-08-03T17:41:38.552Z,4.22
2018-08-03T17:44:07.608Z,4.30
2018-08-03T17:46:37.868Z,4.92
2018-08-03T17:49:07.329Z,4.70
2018-08-03T17:51:37.120Z,4.45
2018-08-03T17:54:06.545Z,4.67
2018-08-03T17:56:37.120Z,4.62
2018-08-03T17:59:06.296Z,4.65
2018-08-03T18:01:36.437Z,4.72
2018-08-03T18:04:06.151Z,4.92
2018-08-03T18:06:35.863Z,4.78
2018-08-03T18:09:06.521Z,4.90
2018-08-03T18:11:36.960Z,4.72
2018-08-03T18:14:06.174Z,4.58
2018-08-03T18:16:36.769Z,4.50
2018-08-03T18:19:06.332Z,4.80
2018-08-03T18:21:36.296Z,4.62
2018-08-03T18:24:05.536Z,5.00
2018-08-03T18:26:35.887Z,4.62
2018-08-03T18:29:05.328Z,4.90
2018-08-03T18:31:35.093Z,5.08
2018-08-03T18:34:04.785Z,5.47
2018-08-03T18:36:34.413Z,5.08
2018-08-03T18:39:04.609Z,5.22
2018-08-03T18:41:34.374Z,4.92
2018-08-03T18:44:03.548Z,5.28
2018-08-03T18:46:32.784Z,4.95
2018-08-03T18:49:02.035Z,4.78
2018-08-03T18:51:30.864Z,5.12
2018-08-03T18:53:59.913Z,5.70
2018-08-03T18:56:29.412Z,5.40
2018-08-03T18:58:58.535Z,5.33
2018-08-03T19:01:27.967Z,5.17
2018-08-03T19:03:57.384Z,4.80
2018-08-03T19:06:26.696Z,5.25
2018-08-03T19:08:55.868Z,5.28
2018-08-03T19:11:25.329Z,5.55
2018-08-03T19:13:54.572Z,4.83
2018-08-03T19:16:23.788Z,5.67
2018-08-03T19:18:52.916Z,5.25
2018-08-03T19:21:22.064Z,5.20
2018-08-03T19:23:51.160Z,5.40
2018-08-03T19:26:20.819Z,5.08
2018-08-03T19:28:49.988Z,5.60
2018-08-03T19:31:19.073Z,5.35
2018-08-03T19:33:48.163Z,5.60
2018-08-03T19:36:17.347Z,5.30
2018-08-03T19:38:46.560Z,5.55
2018-08-03T19:41:16.416Z,5.47
2018-08-03T19:43:45.480Z,5.62
2018-08-03T19:46:14.630Z,5.10
2018-08-03T19:48:44.084Z,5.83
2018-08-03T19:51:13.372Z,5.78
2018-08-03T19:53:42.592Z,5.97
2018-08-03T19:56:12.116Z,6.00
2018-08-03T19:58:41.188Z,5.58
2018-08-03T20:01:10.252Z,5.47
2018-08-03T20:03:39.808Z,5.83
2018-08-03T20:06:08.892Z,5.85
2018-08-03T20:08:38.297Z,5.53
2018-08-03T20:11:07.464Z,5.60
2018-08-03T20:13:37.629Z,5.33
2018-08-03T20:16:07.084Z,5.30
2018-08-03T20:18:37.665Z,5.42
2018-08-03T20:21:06.519Z,5.47
2018-08-03T20:23:36.780Z,5.90
2018-08-03T20:26:06.851Z,6.20
2018-08-03T20:28:36.677Z,5.35
2018-08-03T20:31:05.844Z,5.90
2018-08-03T20:33:35.768Z,5.22
2018-08-03T20:36:05.021Z,5.35
2018-08-03T20:38:35.224Z,5.67
2018-08-03T20:41:04.833Z,5.75
2018-08-03T20:43:34.808Z,5.70
2018-08-03T20:46:04.011Z,5.87
2018-08-03T20:48:33.945Z,5.80
2018-08-03T20:51:03.179Z,5.40
2018-08-03T20:53:32.243Z,6.03
2018-08-03T20:56:01.733Z,6.33
2018-08-03T20:58:30.967Z,5.95
2018-08-03T21:01:00.260Z,6.03
2018-08-03T21:03:29.639Z,6.30
2018-08-03T21:05:58.844Z,5.85
2018-08-03T21:08:28.044Z,6.08
2018-08-03T21:10:57.368Z,5.92
2018-08-03T21:13:26.947Z,5.92
2018-08-03T21:15:56.144Z,5.70
2018-08-03T21:18:25.372Z,6.08
2018-08-03T21:20:54.493Z,5.80
2018-08-03T21:23:23.636Z,6.03
2018-08-03T21:25:52.944Z,6.00
2018-08-03T21:28:22.823Z,6.42
2018-08-03T21:30:52.020Z,6.58
2018-08-03T21:33:21.471Z,6.20
2018-08-03T21:35:50.535Z,6.25
2018-08-03T21:38:19.790Z,6.37
2018-08-03T21:40:49.197Z,6.50
2018-08-03T21:43:18.225Z,6.45
2018-08-03T21:45:48.511Z,6.37
2018-08-03T21:48:17.583Z,6.28
2018-08-03T21:50:46.789Z,6.40
2018-08-03T21:53:15.832Z,6.72
2018-08-03T21:55:46.288Z,7.10
2018-08-03T21:58:15.480Z,7.08
2018-08-03T22:00:46.017Z,6.60
2018-08-03T22:03:15.412Z,7.58
2018-08-03T22:05:45.251Z,6.78
2018-08-03T22:08:14.140Z,6.90
2018-08-03T22:10:45.521Z,7.05
2018-08-03T22:13:14.637Z,7.08
2018-08-03T22:15:44.135Z,6.97
2018-08-03T22:18:14.304Z,7.45
2018-08-03T22:20:43.780Z,7.28
2018-08-03T22:23:12.997Z,7.60
2018-08-03T22:25:43.920Z,6.83
2018-08-03T22:28:13.108Z,7.28
2018-08-03T22:30:43.672Z,7.85
2018-08-03T22:33:12.877Z,7.37
2018-08-03T22:35:44.009Z,7.30
2018-08-03T22:38:13.312Z,7.28
2018-08-03T22:40:43.231Z,7.45
2018-08-03T22:43:12.400Z,6.87
2018-08-03T22:45:44.016Z,7.50
2018-08-03T22:48:13.162Z,7.30
2018-08-03T22:50:43.466Z,7.37
2018-08-03T22:53:12.992Z,7.58
2018-08-03T22:55:43.128Z,7.10
2018-08-03T22:58:12.280Z,7.67
2018-08-03T23:00:42.224Z,7.50
2018-08-03T23:03:11.831Z,7.65
2018-08-03T23:05:41.372Z,7.50
2018-08-03T23:08:11.042Z,7.65
2018-08-03T23:10:42.285Z,7.47
2018-08-03T23:13:12.303Z,7.72
2018-08-03T23:15:42.422Z,7.42
2018-08-03T23:18:11.648Z,7.15
2018-08-03T23:20:43.106Z,7.45
2018-08-03T23:23:12.400Z,7.78
2018-08-03T23:25:44.419Z,7.75
2018-08-03T23:28:13.748Z,8.05
2018-08-03T23:30:45.732Z,7.92
2018-08-03T23:33:14.992Z,7.75
2018-08-03T23:35:46.072Z,7.40
2018-08-03T23:38:15.279Z,7.62
2018-08-03T23:40:45.292Z,8.25
2018-08-03T23:43:14.672Z,8.05
2018-08-03T23:45:46.105Z,7.70
2018-08-03T23:48:16.356Z,8.00
2018-08-03T23:50:46.160Z,8.15
2018-08-03T23:53:15.355Z,8.30
2018-08-03T23:55:46.024Z,8.28
2018-08-03T23:58:15.297Z,8.05
